createdAt,value
2022-12-27T00:01:31.780Z,1.20
2022-12-27T00:03:58.737Z,1.40
2022-12-27T00:06:27.125Z,1.30
2022-12-27T00:08:54.793Z,1.40
2022-12-27T00:11:24.318Z,1.17
2022-12-27T00:13:51.660Z,1.30
2022-12-27T00:16:20.890Z,1.48
2022-12-27T00:18:49.440Z,1.40
2022-12-27T00:21:17.497Z,1.08
2022-12-27T00:23:48.276Z,1.40
2022-12-27T00:26:20.069Z,1.10
2022-12-27T00:28:47.005Z,1.30
2022-12-27T00:31:14.412Z,1.10
2022-12-27T00:33:43.889Z,1.20
2022-12-27T00:36:14.992Z,1.30
2022-12-27T00:38:42.218Z,1.40
2022-12-27T00:41:09.060Z,1.25
2022-12-27T00:43:36.214Z,1.40
2022-12-27T00:46:03.209Z,1.27
2022-12-27T00:48:30.213Z,1.50
2022-12-27T00:51:12.569Z,1.20
2022-12-27T00:53:39.853Z,1.38
2022-12-27T00:56:13.992Z,1.30
2022-12-27T00:58:41.280Z,1.30
2022-12-27T01:01:19.413Z,1.30
2022-12-27T01:03:46.873Z,1.45
2022-12-27T01:06:20.031Z,1.30
2022-12-27T01:08:47.457Z,1.33
2022-12-27T01:11:15.717Z,1.40
2022-12-27T01:13:43.809Z,1.60
2022-12-27T01:16:15.633Z,1.40
2022-12-27T01:18:42.981Z,1.60
2022-12-27T01:21:13.123Z,1.35
2022-12-27T01:23:40.714Z,1.33
2022-12-27T01:26:14.144Z,1.23
2022-12-27T01:28:40.960Z,1.60
2022-12-27T01:31:10.129Z,1.48
2022-12-27T01:33:37.411Z,1.40
2022-12-27T01:36:19.135Z,1.48
2022-12-27T01:38:48.105Z,1.50
2022-12-27T01:41:36.589Z,1.50
2022-12-27T01:44:49.013Z,1.40
2022-12-27T01:47:28.947Z,1.70
2022-12-27T01:50:13.869Z,1.40
2022-12-27T01:52:52.813Z,1.70
2022-12-27T01:55:25.408Z,1.60
2022-12-27T01:57:55.498Z,1.40
2022-12-27T02:00:22.372Z,1.50
2022-12-27T02:02:50.091Z,1.60
2022-12-27T02:05:19.136Z,1.58
2022-12-27T02:07:59.191Z,1.50
2022-12-27T02:10:27.310Z,1.30
2022-12-27T02:12:54.144Z,1.60
2022-12-27T02:15:20.969Z,1.70
2022-12-27T02:17:47.810Z,1.50
2022-12-27T02:20:23.623Z,1.65
2022-12-27T02:23:30.626Z,1.63
2022-12-27T02:26:12.435Z,1.50
2022-12-27T02:28:49.319Z,1.67
2022-12-27T02:31:49.614Z,1.50
2022-12-27T02:34:47.390Z,1.67
2022-12-27T02:37:14.621Z,1.30
2022-12-27T02:39:47.607Z,1.40
2022-12-27T02:42:43.357Z,1.52
2022-12-27T02:45:37.900Z,1.40
2022-12-27T02:48:24.791Z,1.42
2022-12-27T02:51:51.882Z,1.73
2022-12-27T02:54:37.786Z,1.42
2022-12-27T02:57:25.832Z,1.50
2022-12-27T03:00:26.481Z,1.55
2022-12-27T03:03:28.651Z,1.50
2022-12-27T03:06:41.691Z,1.27
2022-12-27T03:09:59.270Z,1.50
2022-12-27T03:13:06.304Z,1.60
2022-12-27T03:15:56.384Z,1.50
2022-12-27T03:18:38.348Z,1.50
2022-12-27T03:21:25.859Z,1.38
2022-12-27T03:24:14.851Z,1.60
2022-12-27T03:26:47.054Z,1.20
2022-12-27T03:29:35.913Z,1.60
2022-12-27T03:32:26.289Z,1.60
2022-12-27T03:35:11.665Z,1.50
2022-12-27T03:38:02.222Z,1.35
2022-12-27T03:41:12.103Z,1.40
2022-12-27T03:43:40.187Z,1.33
2022-12-27T03:46:34.085Z,1.40
2022-12-27T03:49:23.874Z,1.30
2022-12-27T03:51:56.728Z,1.38
2022-12-27T03:54:39.112Z,1.50
2022-12-27T03:57:14.874Z,1.40
2022-12-27T03:59:41.883Z,1.90
2022-12-27T04:02:10.044Z,1.30
2022-12-27T04:04:37.366Z,1.50
2022-12-27T04:07:04.821Z,1.70
2022-12-27T04:09:50.329Z,1.73
2022-12-27T04:12:35.838Z,1.45
2022-12-27T04:15:22.072Z,1.30
2022-12-27T04:18:07.268Z,1.55
2022-12-27T04:20:53.259Z,1.38
2022-12-27T04:23:38.697Z,1.17
2022-12-27T04:26:24.487Z,1.30
2022-12-27T04:29:09.926Z,1.35
2022-12-27T04:31:55.300Z,1.30
2022-12-27T04:34:40.832Z,1.40
2022-12-27T04:37:08.508Z,1.52
2022-12-27T04:39:35.383Z,1.17
2022-12-27T04:42:20.743Z,1.40
2022-12-27T04:45:10.198Z,1.20
2022-12-27T04:47:59.018Z,1.40
2022-12-27T04:50:47.753Z,1.60
2022-12-27T04:53:40.179Z,1.40
2022-12-27T04:56:07.543Z,1.50
2022-12-27T04:58:34.937Z,1.63
2022-12-27T05:01:22.936Z,1.50
2022-12-27T05:03:52.763Z,1.42
2022-12-27T05:06:20.387Z,1.90
2022-12-27T05:09:07.007Z,1.20
2022-12-27T05:11:52.514Z,2.03
2022-12-27T05:14:19.370Z,1.80
2022-12-27T05:16:46.369Z,1.80
2022-12-27T05:19:14.701Z,1.90
2022-12-27T05:22:03.323Z,2.30
2022-12-27T05:24:49.556Z,2.20
2022-12-27T05:27:17.067Z,2.50
2022-12-27T05:29:44.015Z,2.40
2022-12-27T05:32:13.299Z,2.33
2022-12-27T05:34:41.059Z,2.30
2022-12-27T05:37:08.138Z,2.20
2022-12-27T05:39:35.037Z,1.88
2022-12-27T05:42:02.140Z,2.00
2022-12-27T05:44:29.243Z,2.20
2022-12-27T05:46:56.191Z,2.20
2022-12-27T05:49:23.251Z,1.92
2022-12-27T05:51:50.357Z,2.00
2022-12-27T05:54:17.379Z,2.13
2022-12-27T05:56:44.285Z,1.90
2022-12-27T05:59:11.310Z,1.90
2022-12-27T06:01:38.214Z,1.80
2022-12-27T06:04:05.520Z,1.80
2022-12-27T06:06:33.665Z,1.80
2022-12-27T06:09:00.617Z,2.07
2022-12-27T06:11:27.502Z,1.60
2022-12-27T06:13:54.660Z,1.65
2022-12-27T06:16:22.476Z,1.80
2022-12-27T06:18:50.056Z,1.90
2022-12-27T06:21:20.174Z,1.80
2022-12-27T06:23:47.899Z,1.90
2022-12-27T06:26:18.029Z,1.92
2022-12-27T06:28:45.100Z,1.80
2022-12-27T06:31:12.401Z,2.30
2022-12-27T06:33:39.359Z,1.77
2022-12-27T06:36:12.344Z,1.80
2022-12-27T06:38:39.769Z,1.70
2022-12-27T06:41:12.092Z,1.70
2022-12-27T06:43:39.687Z,1.90
2022-12-27T06:46:25.213Z,1.85
2022-12-27T06:48:52.220Z,1.90
2022-12-27T06:51:20.871Z,1.67
2022-12-27T06:53:48.398Z,1.88
2022-12-27T06:56:18.166Z,1.57
2022-12-27T06:58:46.165Z,1.60
2022-12-27T07:01:27.023Z,1.60
2022-12-27T07:03:59.318Z,1.70
2022-12-27T07:06:27.852Z,1.80
2022-12-27T07:08:56.834Z,1.90
2022-12-27T07:11:24.535Z,2.00
2022-12-27T07:13:54.499Z,2.20
2022-12-27T07:16:24.714Z,2.40
2022-12-27T07:18:52.243Z,2.23
2022-12-27T07:21:21.824Z,1.80
2022-12-27T07:23:49.206Z,1.70
2022-12-27T07:26:19.186Z,1.90
2022-12-27T07:28:46.315Z,1.80
2022-12-27T07:31:15.948Z,1.50
2022-12-27T07:33:43.567Z,1.90
2022-12-27T07:36:14.559Z,1.60
2022-12-27T07:38:41.786Z,1.70
2022-12-27T07:41:10.604Z,2.10
2022-12-27T07:43:37.634Z,2.00
2022-12-27T07:46:16.791Z,2.10
2022-12-27T07:48:44.485Z,2.22
2022-12-27T07:51:12.122Z,2.17
2022-12-27T07:53:39.372Z,2.13
2022-12-27T07:56:12.255Z,1.90
2022-12-27T07:58:41.391Z,1.60
2022-12-27T08:01:10.254Z,2.03
2022-12-27T08:03:37.977Z,1.90
2022-12-27T08:06:05.865Z,2.50
2022-12-27T08:08:40.288Z,1.80
2022-12-27T08:11:07.511Z,1.90
2022-12-27T08:13:34.740Z,1.92
2022-12-27T08:16:02.265Z,1.90
2022-12-27T08:18:29.290Z,1.70
2022-12-27T08:20:56.167Z,1.70
2022-12-27T08:23:23.285Z,1.80
2022-12-27T08:25:50.197Z,1.80
2022-12-27T08:28:18.567Z,2.05
2022-12-27T08:30:47.054Z,1.80
2022-12-27T08:33:15.306Z,1.67
2022-12-27T08:35:54.268Z,1.90
2022-12-27T08:38:22.320Z,2.10
2022-12-27T08:40:49.239Z,2.10
2022-12-27T08:43:16.236Z,2.20
2022-12-27T08:45:43.268Z,2.30
2022-12-27T08:48:10.277Z,2.13
2022-12-27T08:50:37.230Z,1.90
2022-12-27T08:53:06.111Z,1.80
2022-12-27T08:55:33.651Z,1.70
2022-12-27T08:58:09.355Z,1.80
2022-12-27T09:00:40.870Z,1.70
2022-12-27T09:03:09.562Z,2.20
2022-12-27T09:05:41.477Z,2.10
2022-12-27T09:08:09.113Z,1.73
2022-12-27T09:10:36.048Z,2.10
2022-12-27T09:13:03.379Z,2.20
2022-12-27T09:15:30.452Z,2.00
2022-12-27T09:17:59.378Z,1.60
2022-12-27T09:20:26.362Z,2.00
2022-12-27T09:22:53.225Z,2.20
2022-12-27T09:25:20.154Z,2.00
2022-12-27T09:27:47.048Z,2.07
2022-12-27T09:30:14.017Z,2.07
2022-12-27T09:32:40.889Z,2.40
2022-12-27T09:35:08.203Z,2.40
2022-12-27T09:37:35.031Z,3.17
2022-12-27T09:40:02.082Z,3.58
2022-12-27T09:43:02.053Z,3.28
2022-12-27T09:45:45.511Z,3.10
2022-12-27T09:48:18.359Z,3.53
2022-12-27T09:50:53.963Z,3.35
2022-12-27T09:53:36.267Z,3.50
2022-12-27T09:56:04.804Z,3.75
2022-12-27T09:59:03.682Z,3.20
2022-12-27T10:01:40.363Z,4.60
2022-12-27T10:04:13.204Z,4.50
2022-12-27T10:06:50.039Z,4.18
2022-12-27T10:09:19.974Z,4.50
2022-12-27T10:12:04.362Z,4.50
2022-12-27T10:14:59.873Z,3.90
2022-12-27T10:17:35.566Z,3.40
2022-12-27T10:20:15.573Z,3.40
2022-12-27T10:22:51.183Z,3.30
2022-12-27T10:25:21.717Z,3.50
2022-12-27T10:27:50.109Z,3.60
2022-12-27T10:30:20.270Z,3.40
2022-12-27T10:32:48.644Z,3.00
2022-12-27T10:35:21.157Z,2.40
2022-12-27T10:37:49.248Z,2.50
2022-12-27T10:40:40.102Z,2.50
2022-12-27T10:43:18.242Z,2.05
2022-12-27T10:45:45.419Z,2.40
2022-12-27T10:49:19.560Z,2.42
2022-12-27T10:51:40.317Z,1.90
2022-12-27T10:54:12.891Z,1.95
2022-12-27T10:56:41.773Z,1.90
2022-12-27T10:59:18.908Z,2.20
2022-12-27T11:02:07.226Z,1.97
2022-12-27T11:04:34.648Z,1.98
2022-12-27T11:07:04.511Z,1.90
2022-12-27T11:09:38.751Z,2.40
2022-12-27T11:12:14.277Z,2.40
2022-12-27T11:14:53.820Z,1.92
2022-12-27T11:17:27.684Z,2.38
2022-12-27T11:19:57.359Z,2.60
2022-12-27T11:22:24.579Z,2.00
2022-12-27T11:24:53.618Z,2.10
2022-12-27T11:27:26.921Z,2.25
2022-12-27T11:29:58.139Z,2.17
2022-12-27T11:32:25.748Z,2.20
2022-12-27T11:34:56.082Z,1.90
2022-12-27T11:37:26.651Z,1.80
2022-12-27T11:40:11.044Z,1.42
2022-12-27T11:42:44.775Z,1.40
2022-12-27T11:45:18.151Z,1.50
2022-12-27T11:48:39.124Z,1.23
2022-12-27T11:51:27.559Z,1.40
2022-12-27T11:54:09.662Z,1.60
2022-12-27T11:57:06.571Z,1.33
2022-12-27T11:59:56.604Z,1.30
2022-12-27T12:02:37.882Z,1.50
2022-12-27T12:05:16.401Z,1.40
2022-12-27T12:08:04.882Z,1.55
2022-12-27T12:11:13.908Z,1.60
2022-12-27T12:14:15.959Z,1.50
2022-12-27T12:17:04.380Z,1.50
2022-12-27T12:19:50.682Z,1.30
2022-12-27T12:22:43.261Z,1.60
2022-12-27T12:25:28.898Z,1.40
2022-12-27T12:28:38.815Z,1.38
2022-12-27T12:31:23.221Z,1.40
2022-12-27T12:33:56.312Z,1.40
2022-12-27T12:36:31.855Z,1.20
2022-12-27T12:39:11.012Z,1.33
2022-12-27T12:41:47.930Z,1.50
2022-12-27T12:44:26.796Z,1.30
2022-12-27T12:47:34.907Z,1.50
2022-12-27T12:50:39.592Z,1.50
2022-12-27T12:53:15.131Z,1.50
2022-12-27T12:55:51.646Z,1.50
2022-12-27T12:58:21.516Z,1.50
2022-12-27T13:01:07.128Z,1.40
2022-12-27T13:04:09.517Z,1.17
2022-12-27T13:06:57.914Z,1.30
2022-12-27T13:09:49.871Z,1.50
2022-12-27T13:12:47.521Z,1.30
2022-12-27T13:15:56.418Z,1.60
2022-12-27T13:18:45.219Z,1.40
2022-12-27T13:21:38.295Z,1.67
2022-12-27T13:24:27.871Z,1.70
2022-12-27T13:27:17.687Z,1.60
2022-12-27T13:30:03.043Z,1.73
2022-12-27T13:33:01.590Z,1.98
2022-12-27T13:35:35.693Z,1.50
2022-12-27T13:38:02.547Z,2.20
2022-12-27T13:40:35.580Z,1.50
2022-12-27T13:44:00.978Z,1.83
2022-12-27T13:46:58.035Z,1.60
2022-12-27T13:49:39.865Z,1.60
2022-12-27T13:52:37.187Z,1.63
2022-12-27T13:55:24.642Z,1.40
2022-12-27T13:58:28.950Z,1.70
2022-12-27T14:01:20.117Z,1.40
2022-12-27T14:04:06.221Z,1.77
2022-12-27T14:07:12.216Z,2.03
2022-12-27T14:10:03.329Z,1.45
2022-12-27T14:12:54.168Z,2.00
2022-12-27T14:15:41.386Z,1.50
2022-12-27T14:18:54.785Z,1.40
2022-12-27T14:22:00.046Z,1.60
2022-12-27T14:24:54.747Z,1.67
2022-12-27T14:27:46.555Z,1.90
2022-12-27T14:30:49.095Z,1.50
2022-12-27T14:33:40.175Z,1.90
2022-12-27T14:36:19.012Z,1.50
2022-12-27T14:39:00.566Z,1.90
2022-12-27T14:42:12.367Z,1.60
2022-12-27T14:45:16.843Z,1.88
2022-12-27T14:47:54.570Z,1.60
2022-12-27T14:50:46.367Z,1.60
2022-12-27T14:53:34.701Z,1.60
2022-12-27T14:56:20.010Z,2.05
2022-12-27T14:58:54.385Z,2.40
2022-12-27T15:01:41.500Z,1.92
2022-12-27T15:04:34.821Z,2.10
2022-12-27T15:07:24.733Z,1.80
2022-12-27T15:10:07.491Z,1.85
2022-12-27T15:12:37.184Z,1.60
2022-12-27T15:15:19.286Z,1.60
2022-12-27T15:18:05.047Z,1.90
2022-12-27T15:20:57.823Z,1.60
2022-12-27T15:24:02.064Z,1.95
2022-12-27T15:26:51.546Z,1.80
2022-12-27T15:29:21.511Z,1.90
2022-12-27T15:32:23.564Z,1.70
2022-12-27T15:35:08.850Z,1.50
2022-12-27T15:37:47.822Z,1.50
2022-12-27T15:40:33.115Z,1.52
2022-12-27T15:43:34.561Z,1.70
2022-12-27T15:46:45.993Z,1.42
2022-12-27T15:49:40.387Z,1.60
2022-12-27T15:52:39.695Z,2.05
2022-12-27T15:55:44.047Z,2.50
2022-12-27T15:58:22.643Z,1.95
2022-12-27T16:01:25.227Z,2.10
2022-12-27T16:03:54.024Z,2.00
2022-12-27T16:06:36.118Z,2.50
2022-12-27T16:09:24.196Z,2.20
2022-12-27T16:12:09.513Z,2.47
2022-12-27T16:14:38.926Z,1.83
2022-12-27T16:17:11.468Z,3.40
2022-12-27T16:19:52.291Z,3.60
2022-12-27T16:22:26.432Z,6.95
2022-12-27T16:24:53.718Z,7.05
2022-12-27T16:27:32.779Z,11.60
2022-12-27T16:30:00.111Z,7.15
2022-12-27T16:32:28.483Z,8.40
2022-12-27T16:35:11.554Z,4.63
2022-12-27T16:37:45.382Z,12.15
2022-12-27T16:40:26.390Z,12.40
2022-12-27T16:42:53.332Z,6.55
2022-12-27T16:45:35.370Z,15.50
2022-12-27T16:48:11.358Z,8.30
2022-12-27T16:51:10.079Z,4.70
2022-12-27T16:53:58.617Z,4.50
2022-12-27T16:56:28.557Z,5.15
2022-12-27T16:58:57.395Z,5.15
2022-12-27T17:01:50.572Z,5.10
2022-12-27T17:05:01.551Z,4.80
2022-12-27T17:07:56.180Z,4.50
2022-12-27T17:10:34.919Z,4.20
2022-12-27T17:13:10.781Z,3.90
2022-12-27T17:16:12.813Z,3.80
2022-12-27T17:19:05.600Z,4.20
2022-12-27T17:21:36.892Z,4.20
2022-12-27T17:24:10.050Z,5.10
2022-12-27T17:26:42.862Z,6.00
2022-12-27T17:29:33.676Z,6.40
2022-12-27T17:32:21.431Z,5.45
2022-12-27T17:35:16.007Z,4.28
2022-12-27T17:37:52.622Z,3.70
2022-12-27T17:40:31.554Z,4.70
2022-12-27T17:43:38.639Z,4.00
2022-12-27T17:46:45.916Z,10.25
2022-12-27T17:49:13.135Z,5.00
2022-12-27T17:52:03.304Z,8.82
2022-12-27T17:54:49.057Z,3.85
2022-12-27T17:57:37.935Z,4.07
2022-12-27T18:00:06.628Z,4.13
2022-12-27T18:02:37.650Z,2.80
2022-12-27T18:05:11.075Z,3.40
2022-12-27T18:07:38.699Z,3.03
2022-12-27T18:10:25.268Z,2.87
2022-12-27T18:12:55.478Z,2.80
2022-12-27T18:15:25.519Z,2.80
2022-12-27T18:17:55.718Z,3.00
2022-12-27T18:20:28.863Z,2.97
2022-12-27T18:23:01.607Z,2.70
2022-12-27T18:25:34.541Z,3.40
2022-12-27T18:28:04.146Z,3.90
2022-12-27T18:30:43.458Z,5.70
2022-12-27T18:33:16.297Z,7.53
2022-12-27T18:35:48.487Z,3.45
2022-12-27T18:38:25.784Z,2.63
2022-12-27T18:41:09.775Z,3.15
2022-12-27T18:43:41.437Z,2.70
2022-12-27T18:46:13.838Z,3.23
2022-12-27T18:48:41.943Z,3.50
2022-12-27T18:51:09.286Z,3.03
2022-12-27T18:53:38.606Z,3.88
2022-12-27T18:56:29.362Z,3.67
2022-12-27T18:59:06.551Z,3.53
2022-12-27T19:01:44.902Z,3.65
2022-12-27T19:04:14.963Z,4.40
2022-12-27T19:06:46.662Z,4.13
2022-12-27T19:09:19.187Z,4.32
2022-12-27T19:11:58.721Z,4.10
2022-12-27T19:14:29.678Z,3.70
2022-12-27T19:16:59.065Z,3.83
2022-12-27T19:19:29.750Z,4.00
2022-12-27T19:21:57.801Z,2.85
2022-12-27T19:24:27.568Z,2.60
2022-12-27T19:27:00.872Z,3.58
2022-12-27T19:29:36.500Z,2.97
2022-12-27T19:32:09.830Z,4.22
2022-12-27T19:34:45.745Z,2.80
2022-12-27T19:37:13.157Z,3.00
2022-12-27T19:39:41.511Z,2.90
2022-12-27T19:42:14.922Z,3.25
2022-12-27T19:44:41.787Z,3.75
2022-12-27T19:47:14.071Z,3.25
2022-12-27T19:49:42.959Z,2.92
2022-12-27T19:52:23.789Z,2.90
2022-12-27T19:54:53.086Z,3.40
2022-12-27T19:57:22.168Z,2.90
2022-12-27T19:59:49.152Z,3.10
2022-12-27T20:02:18.143Z,2.97
2022-12-27T20:04:45.506Z,2.20
2022-12-27T20:07:20.335Z,2.80
2022-12-27T20:09:47.555Z,2.90
2022-12-27T20:12:16.395Z,2.50
2022-12-27T20:14:43.419Z,3.27
2022-12-27T20:17:10.447Z,2.60
2022-12-27T20:19:37.520Z,2.35
2022-12-27T20:22:05.317Z,1.90
2022-12-27T20:24:33.030Z,2.20
2022-12-27T20:27:00.029Z,2.55
2022-12-27T20:29:27.587Z,2.60
2022-12-27T20:31:56.848Z,2.65
2022-12-27T20:34:23.886Z,2.40
2022-12-27T20:36:52.198Z,2.45
2022-12-27T20:39:19.146Z,2.30
2022-12-27T20:41:46.173Z,2.25
2022-12-27T20:44:16.029Z,2.20
2022-12-27T20:46:43.068Z,2.45
2022-12-27T20:49:10.042Z,2.10
2022-12-27T20:51:37.249Z,1.70
2022-12-27T20:54:04.712Z,2.40
2022-12-27T20:56:31.664Z,2.90
2022-12-27T20:58:58.596Z,2.30
2022-12-27T21:01:26.506Z,4.35
2022-12-27T21:03:56.012Z,4.93
2022-12-27T21:06:28.150Z,3.60
2022-12-27T21:08:57.798Z,2.00
2022-12-27T21:11:31.490Z,2.70
2022-12-27T21:14:00.656Z,2.20
2022-12-27T21:16:29.019Z,2.50
2022-12-27T21:18:57.173Z,2.33
2022-12-27T21:21:28.487Z,1.90
2022-12-27T21:23:57.565Z,2.20
2022-12-27T21:26:27.948Z,2.30
2022-12-27T21:28:55.743Z,2.10
2022-12-27T21:31:23.119Z,2.10
2022-12-27T21:33:50.187Z,1.30
2022-12-27T21:36:20.075Z,1.30
2022-12-27T21:38:47.703Z,1.50
2022-12-27T21:41:17.371Z,1.75
2022-12-27T21:43:45.373Z,1.90
2022-12-27T21:46:14.535Z,2.20
2022-12-27T21:48:41.615Z,2.17
2022-12-27T21:51:12.197Z,2.13
2022-12-27T21:53:40.960Z,2.20
2022-12-27T21:56:09.833Z,2.05
2022-12-27T21:58:38.506Z,2.00
2022-12-27T22:01:08.861Z,1.95
2022-12-27T22:03:40.591Z,1.50
2022-12-27T22:06:30.851Z,1.50
2022-12-27T22:09:00.165Z,1.20
2022-12-27T22:11:29.147Z,1.38
2022-12-27T22:13:56.709Z,1.10
2022-12-27T22:16:27.006Z,1.10
2022-12-27T22:18:56.054Z,1.40
2022-12-27T22:21:31.455Z,1.00
2022-12-27T22:24:00.255Z,1.10
2022-12-27T22:26:32.792Z,1.00
2022-12-27T22:29:00.092Z,1.60
2022-12-27T22:31:31.146Z,1.10
2022-12-27T22:33:58.173Z,1.00
2022-12-27T22:36:26.787Z,0.90
2022-12-27T22:38:57.831Z,1.63
2022-12-27T22:41:27.720Z,1.10
2022-12-27T22:43:59.004Z,1.03
2022-12-27T22:46:27.355Z,1.23
2022-12-27T22:48:56.583Z,1.20
2022-12-27T22:51:35.051Z,1.00
2022-12-27T22:54:03.215Z,1.10
2022-12-27T22:56:32.446Z,1.10
2022-12-27T22:58:59.859Z,1.10
2022-12-27T23:01:29.765Z,1.40
2022-12-27T23:03:58.101Z,2.90
2022-12-27T23:06:25.302Z,3.40
2022-12-27T23:08:52.177Z,1.98
2022-12-27T23:11:24.453Z,1.75
2022-12-27T23:14:02.561Z,1.38
2022-12-27T23:16:39.265Z,2.03
2022-12-27T23:19:07.668Z,1.50
2022-12-27T23:21:34.940Z,1.60
2022-12-27T23:24:01.952Z,1.33
2022-12-27T23:26:28.859Z,2.27
2022-12-27T23:28:56.041Z,1.67
2022-12-27T23:31:25.988Z,1.40
2022-12-27T23:33:54.136Z,1.30
2022-12-27T23:36:21.635Z,1.20
2022-12-27T23:38:49.148Z,1.40
2022-12-27T23:41:19.948Z,1.30
2022-12-27T23:43:55.862Z,1.20
2022-12-27T23:46:33.315Z,1.10
2022-12-27T23:49:02.971Z,1.00
2022-12-27T23:51:31.361Z,1.00
2022-12-27T23:53:58.447Z,1.00
2022-12-27T23:56:30.629Z,1.30
2022-12-27T23:58:59.315Z,0.98
